createdAt,value
2019-01-29T00:01:11.969Z,217.63
2019-01-29T00:05:19.629Z,217.77
2019-01-29T00:09:25.884Z,210.00
2019-01-29T00:13:32.571Z,214.83
2019-01-29T00:17:38.997Z,207.13
2019-01-29T00:21:46.777Z,220.47
2019-01-29T00:25:53.086Z,214.97
2019-01-29T00:30:01.702Z,195.73
2019-01-29T00:34:08.109Z,213.50
2019-01-29T00:38:15.294Z,201.47
2019-01-29T00:42:21.542Z,188.73
2019-01-29T00:46:28.200Z,202.23
2019-01-29T00:50:34.478Z,192.00
2019-01-29T00:54:41.977Z,201.03
2019-01-29T00:58:48.345Z,206.30
2019-01-29T01:02:54.684Z,202.10
2019-01-29T01:07:01.013Z,186.37
2019-01-29T01:11:08.766Z,184.00
2019-01-29T01:15:15.291Z,194.07
2019-01-29T01:19:23.655Z,174.20
2019-01-29T01:23:32.201Z,200.47
2019-01-29T01:27:39.897Z,185.10
2019-01-29T01:31:47.043Z,177.13
2019-01-29T01:35:55.039Z,175.37
2019-01-29T01:40:01.409Z,176.30
2019-01-29T01:44:09.117Z,173.40
2019-01-29T01:48:15.432Z,169.10
2019-01-29T01:52:21.969Z,165.93
2019-01-29T01:56:28.244Z,171.17
2019-01-29T02:00:34.904Z,160.07
2019-01-29T02:04:41.203Z,158.10
2019-01-29T02:08:47.633Z,162.07
2019-01-29T02:12:53.916Z,171.67
2019-01-29T02:17:03.489Z,162.10
2019-01-29T02:21:09.902Z,162.10
2019-01-29T02:25:17.436Z,154.23
2019-01-29T02:29:23.699Z,150.93
2019-01-29T02:33:31.267Z,151.47
2019-01-29T02:37:37.658Z,150.47
2019-01-29T02:41:43.977Z,143.07
2019-01-29T02:45:50.317Z,147.70
2019-01-29T02:50:01.073Z,144.63
2019-01-29T02:54:07.395Z,153.00
2019-01-29T02:58:13.808Z,132.07
2019-01-29T03:02:20.065Z,146.97
2019-01-29T03:06:27.347Z,125.80
2019-01-29T03:10:36.680Z,118.13
2019-01-29T03:14:43.063Z,132.23
2019-01-29T03:18:49.384Z,130.07
2019-01-29T03:22:56.020Z,130.77
2019-01-29T03:27:02.348Z,122.63
2019-01-29T03:31:09.005Z,123.77
2019-01-29T03:35:16.768Z,121.57
2019-01-29T03:39:25.851Z,127.87
2019-01-29T03:43:34.587Z,117.57
2019-01-29T03:47:41.283Z,116.70
2019-01-29T03:51:47.551Z,127.10
2019-01-29T03:55:54.718Z,127.97
2019-01-29T04:00:01.952Z,122.80
2019-01-29T04:04:09.408Z,129.97
2019-01-29T04:08:15.980Z,129.60
2019-01-29T04:12:23.229Z,127.70
2019-01-29T04:16:29.505Z,124.03
2019-01-29T04:20:35.938Z,127.37
2019-01-29T04:24:42.202Z,118.90
2019-01-29T04:28:49.118Z,118.60
2019-01-29T04:32:55.407Z,123.47
2019-01-29T04:37:02.655Z,127.20
2019-01-29T04:41:11.911Z,117.13
2019-01-29T04:45:19.744Z,118.70
2019-01-29T04:49:26.057Z,122.07
2019-01-29T04:53:32.456Z,119.43
2019-01-29T04:57:38.761Z,124.73
2019-01-29T05:01:46.502Z,107.13
2019-01-29T05:05:52.794Z,112.40
2019-01-29T05:09:59.329Z,119.90
2019-01-29T05:14:06.226Z,116.83
2019-01-29T05:18:13.154Z,113.13
2019-01-29T05:22:19.473Z,116.30
2019-01-29T05:26:25.795Z,109.37
2019-01-29T05:30:32.117Z,114.70
2019-01-29T05:34:39.421Z,118.93
2019-01-29T05:38:47.247Z,127.03
2019-01-29T05:42:54.117Z,123.40
2019-01-29T05:47:00.464Z,118.40
2019-01-29T05:51:08.590Z,115.53
2019-01-29T05:55:16.687Z,129.13
2019-01-29T05:59:23.078Z,115.67
2019-01-29T06:03:29.347Z,125.07
2019-01-29T06:07:36.185Z,128.27
2019-01-29T06:11:44.884Z,123.20
2019-01-29T06:15:53.364Z,121.73
2019-01-29T06:19:59.718Z,120.87
2019-01-29T06:24:06.680Z,134.30
2019-01-29T06:28:12.985Z,122.07
2019-01-29T06:32:21.689Z,130.50
2019-01-29T06:36:28.007Z,132.57
2019-01-29T06:40:37.204Z,119.20
2019-01-29T06:44:43.470Z,140.10
2019-01-29T06:48:49.984Z,126.73
2019-01-29T06:52:56.535Z,146.07
2019-01-29T06:57:05.704Z,134.27
2019-01-29T07:01:11.977Z,150.73
2019-01-29T07:05:18.644Z,134.17
2019-01-29T07:09:25.052Z,129.97
2019-01-29T07:13:33.033Z,138.83
2019-01-29T07:17:42.074Z,146.03
2019-01-29T07:21:48.539Z,141.30
2019-01-29T07:25:54.948Z,137.73
2019-01-29T07:30:03.020Z,137.17
2019-01-29T07:34:09.477Z,140.13
2019-01-29T07:38:15.937Z,143.00
2019-01-29T07:42:22.927Z,129.77
2019-01-29T07:46:29.348Z,146.90
2019-01-29T07:50:35.675Z,124.67
2019-01-29T07:54:42.069Z,139.17
2019-01-29T07:58:49.322Z,136.70
2019-01-29T08:02:55.819Z,131.33
2019-01-29T08:07:02.703Z,136.87
2019-01-29T08:11:11.608Z,138.27
2019-01-29T08:15:18.488Z,141.13
2019-01-29T08:19:25.799Z,147.50
2019-01-29T08:23:32.099Z,132.30
2019-01-29T08:27:39.564Z,120.93
2019-01-29T08:31:45.860Z,117.57
2019-01-29T08:35:53.238Z,119.30
2019-01-29T08:39:59.507Z,117.77
2019-01-29T08:44:09.005Z,114.37
2019-01-29T08:48:15.355Z,117.27
2019-01-29T08:52:22.577Z,112.00
2019-01-29T08:56:29.874Z,115.03
2019-01-29T09:00:36.655Z,105.77
2019-01-29T09:04:45.855Z,102.33
2019-01-29T09:08:54.139Z,104.80
2019-01-29T09:13:00.428Z,96.77
2019-01-29T09:17:06.947Z,93.53
2019-01-29T09:21:13.338Z,94.07
2019-01-29T09:25:22.717Z,105.20
2019-01-29T09:29:28.113Z,98.27
2019-01-29T09:33:34.528Z,101.03
2019-01-29T09:37:40.855Z,91.10
2019-01-29T09:41:48.117Z,94.67
2019-01-29T09:45:55.360Z,93.63
2019-01-29T09:50:01.690Z,89.93
2019-01-29T09:54:08.420Z,88.77
2019-01-29T09:58:16.331Z,94.77
2019-01-29T10:02:22.908Z,92.27
2019-01-29T10:06:29.551Z,85.27
2019-01-29T10:10:35.837Z,88.67
2019-01-29T10:14:42.452Z,97.07
2019-01-29T10:18:48.691Z,66.83
2019-01-29T10:22:55.355Z,69.63
2019-01-29T10:27:01.743Z,62.43
2019-01-29T10:31:10.139Z,60.13
2019-01-29T10:35:17.940Z,56.10
2019-01-29T10:39:24.360Z,61.00
2019-01-29T10:43:30.735Z,55.80
2019-01-29T10:47:39.626Z,57.57
2019-01-29T10:51:45.941Z,48.20
2019-01-29T10:55:52.298Z,49.50
2019-01-29T10:59:58.566Z,54.33
2019-01-29T11:04:06.214Z,49.50
2019-01-29T11:08:12.868Z,47.30
2019-01-29T11:12:19.839Z,52.37
2019-01-29T11:16:26.187Z,49.03
2019-01-29T11:20:34.182Z,42.43
2019-01-29T11:24:40.783Z,45.23
2019-01-29T11:28:47.107Z,52.40
2019-01-29T11:32:53.441Z,49.57
2019-01-29T11:37:00.643Z,44.57
2019-01-29T11:41:06.951Z,48.67
2019-01-29T11:45:17.716Z,41.80
2019-01-29T11:49:26.718Z,58.70
2019-01-29T11:53:33.465Z,56.70
2019-01-29T11:57:39.694Z,51.00
2019-01-29T12:01:46.017Z,57.60
2019-01-29T12:05:52.363Z,47.70
2019-01-29T12:10:00.808Z,46.87
2019-01-29T12:14:07.300Z,41.00
2019-01-29T12:18:15.440Z,42.40
2019-01-29T12:22:22.033Z,47.60
2019-01-29T12:26:28.644Z,43.73
2019-01-29T12:30:34.955Z,48.53
2019-01-29T12:34:41.297Z,41.57
2019-01-29T12:38:47.572Z,45.23
2019-01-29T12:42:54.930Z,47.57
2019-01-29T12:47:01.194Z,44.13
2019-01-29T12:51:15.657Z,52.47
2019-01-29T12:55:21.930Z,46.53
2019-01-29T12:59:28.331Z,40.07
2019-01-29T13:03:34.642Z,63.83
2019-01-29T13:07:43.653Z,53.67
2019-01-29T13:11:50.007Z,51.30
2019-01-29T13:15:56.485Z,51.03
2019-01-29T13:20:02.795Z,50.27
2019-01-29T13:24:09.376Z,54.50
2019-01-29T13:28:15.678Z,51.63
2019-01-29T13:32:22.460Z,46.77
2019-01-29T13:36:28.745Z,44.17
2019-01-29T13:40:35.108Z,50.13
2019-01-29T13:44:42.353Z,50.70
2019-01-29T13:48:50.036Z,44.53
2019-01-29T13:52:57.728Z,51.10
2019-01-29T13:57:04.148Z,45.03
2019-01-29T14:01:10.440Z,47.10
2019-01-29T14:05:17.455Z,32.23
2019-01-29T14:09:26.833Z,36.10
2019-01-29T14:13:33.161Z,42.03
2019-01-29T14:17:39.638Z,32.17
2019-01-29T14:21:47.320Z,34.67
2019-01-29T14:25:55.531Z,30.83
2019-01-29T14:30:03.938Z,31.37
2019-01-29T14:34:10.612Z,35.63
2019-01-29T14:38:58.690Z,34.20
2019-01-29T14:43:05.486Z,34.30
2019-01-29T14:47:12.449Z,32.53
2019-01-29T14:51:18.772Z,24.57
2019-01-29T14:55:26.697Z,30.00
2019-01-29T14:59:33.020Z,31.43
2019-01-29T15:03:39.408Z,26.73
2019-01-29T15:07:45.685Z,32.97
2019-01-29T15:11:52.947Z,22.47
2019-01-29T15:16:18.672Z,29.87
2019-01-29T15:20:25.176Z,29.27
2019-01-29T15:24:31.461Z,30.13
2019-01-29T15:28:39.976Z,35.40
2019-01-29T15:32:46.263Z,31.63
2019-01-29T15:36:52.569Z,36.80
2019-01-29T15:40:58.841Z,31.73
2019-01-29T15:45:11.132Z,38.13
2019-01-29T15:49:17.433Z,37.87
2019-01-29T15:53:23.752Z,39.20
2019-01-29T15:57:30.455Z,35.90
2019-01-29T16:01:37.915Z,41.80
2019-01-29T16:05:44.291Z,37.47
2019-01-29T16:09:50.708Z,43.77
2019-01-29T16:13:57.073Z,45.33
2019-01-29T16:18:04.289Z,49.73
2019-01-29T16:22:10.745Z,48.57
2019-01-29T16:26:17.133Z,59.27
2019-01-29T16:30:27.425Z,58.93
2019-01-29T16:34:34.362Z,55.87
2019-01-29T16:38:40.687Z,55.70
2019-01-29T16:42:47.107Z,55.70
2019-01-29T16:46:53.448Z,57.77
2019-01-29T16:51:00.700Z,46.13
2019-01-29T16:55:11.812Z,39.97
2019-01-29T16:59:23.427Z,44.57
2019-01-29T17:03:29.725Z,33.13
2019-01-29T17:07:36.225Z,51.80
2019-01-29T17:11:42.524Z,63.07
2019-01-29T17:15:51.410Z,61.63
2019-01-29T17:19:59.982Z,63.30
2019-01-29T17:24:07.059Z,53.83
2019-01-29T17:28:14.637Z,69.57
2019-01-29T17:32:30.057Z,54.87
2019-01-29T17:36:29.128Z,64.80
2019-01-29T17:40:36.436Z,61.77
2019-01-29T17:44:42.857Z,60.33
2019-01-29T17:48:49.348Z,62.70
2019-01-29T17:52:55.775Z,56.87
2019-01-29T17:57:03.573Z,53.57
2019-01-29T18:01:10.099Z,54.43
2019-01-29T18:05:16.427Z,53.53
2019-01-29T18:09:22.775Z,64.73
2019-01-29T18:13:31.557Z,69.33
2019-01-29T18:17:37.986Z,66.10
2019-01-29T18:21:44.991Z,56.27
2019-01-29T18:25:51.348Z,53.97
2019-01-29T18:29:57.936Z,52.30
2019-01-29T18:34:06.006Z,48.27
2019-01-29T18:38:12.982Z,49.07
2019-01-29T18:42:19.336Z,50.03
2019-01-29T18:46:25.671Z,52.20
2019-01-29T18:50:32.181Z,57.43
2019-01-29T18:54:38.941Z,47.17
2019-01-29T18:58:45.341Z,56.50
2019-01-29T19:02:54.537Z,59.47
2019-01-29T19:07:00.845Z,54.93
2019-01-29T19:11:07.839Z,51.00
2019-01-29T19:15:19.299Z,49.67
2019-01-29T19:19:25.831Z,56.33
2019-01-29T19:23:32.027Z,54.03
2019-01-29T19:27:39.393Z,56.47
2019-01-29T19:32:05.273Z,57.07
2019-01-29T19:36:12.491Z,55.73
2019-01-29T19:40:18.967Z,54.70
2019-01-29T19:44:25.430Z,56.47
2019-01-29T19:48:31.645Z,64.20
2019-01-29T19:52:38.495Z,63.00
2019-01-29T19:56:44.946Z,62.43
2019-01-29T20:00:52.526Z,63.30
2019-01-29T20:05:00.287Z,60.77
2019-01-29T20:09:12.094Z,63.30
2019-01-29T20:13:18.415Z,60.77
2019-01-29T20:17:24.815Z,50.97
2019-01-29T20:21:31.248Z,60.27
2019-01-29T20:25:37.709Z,71.17
2019-01-29T20:29:44.106Z,64.47
2019-01-29T20:33:56.591Z,59.77
2019-01-29T20:38:03.088Z,68.77
2019-01-29T20:42:11.158Z,74.43
2019-01-29T20:46:17.495Z,47.23
2019-01-29T20:50:28.986Z,62.53
2019-01-29T20:54:38.139Z,57.03
2019-01-29T20:58:52.811Z,55.90
2019-01-29T21:02:56.900Z,49.70
2019-01-29T21:07:06.268Z,53.57
2019-01-29T21:11:12.672Z,54.43
2019-01-29T21:15:21.300Z,52.37
2019-01-29T21:19:27.939Z,50.87
2019-01-29T21:23:34.328Z,57.90
2019-01-29T21:27:40.621Z,57.03
2019-01-29T21:31:47.088Z,51.33
2019-01-29T21:35:53.401Z,49.37
2019-01-29T21:40:00.309Z,48.90
2019-01-29T21:44:06.730Z,43.60
2019-01-29T21:48:14.868Z,50.20
2019-01-29T21:52:21.300Z,51.13
2019-01-29T21:56:28.009Z,52.63
2019-01-29T22:00:39.335Z,50.50
2019-01-29T22:04:47.454Z,53.97
2019-01-29T22:08:54.925Z,50.50
2019-01-29T22:13:02.552Z,60.30
2019-01-29T22:17:08.823Z,58.20
2019-01-29T22:21:15.862Z,58.43
2019-01-29T22:25:22.306Z,65.07
2019-01-29T22:29:29.966Z,63.07
2019-01-29T22:33:37.750Z,60.47
2019-01-29T22:37:45.439Z,61.17
2019-01-29T22:41:52.950Z,69.50
2019-01-29T22:45:59.308Z,65.67
2019-01-29T22:50:07.967Z,59.40
2019-01-29T22:54:15.102Z,66.83
2019-01-29T22:58:21.426Z,62.40
2019-01-29T23:02:30.548Z,66.70
2019-01-29T23:06:54.879Z,62.00
2019-01-29T23:11:02.573Z,66.67
2019-01-29T23:15:12.100Z,56.37
2019-01-29T23:19:18.758Z,58.80
2019-01-29T23:23:25.045Z,49.27
2019-01-29T23:27:32.322Z,49.93
2019-01-29T23:31:38.805Z,57.53
2019-01-29T23:35:45.149Z,46.47
2019-01-29T23:39:51.381Z,49.67
2019-01-29T23:43:58.788Z,56.03
2019-01-29T23:48:05.267Z,52.03
2019-01-29T23:52:11.644Z,59.50
2019-01-29T23:56:17.907Z,62.63
